Coyote Springs, Nevada
Current Conditions -  °F | °C
As of 6:58 AM on Friday 19 Dec 2014 (Local Time) from KINS Reporting Station
Clear Clear  
Wind Chill: 33°   Ceiling: Unl
Heat Index: 33°   Visibility: 10mi
Dew Point: 33°   Wind: 1mph
Humidity: 97%   Direction: 120°ESE
Pressure: 30.23"   Gusts: NA
Location:  36.91°N, 114.95°W
Report Text: KINS 191458Z AUTO 12001KT 10SM CLR 01/00 A3023 RMK AO2 SLP238 T00080004 50004
Loading
Personal Weather Stations






























Interactive Weather Map New forecast layout! Learn more

10-Day Weather Forecast

Advertisements
Track Severe Weather on mobile